05 Dec 2021 01:01 UTC 2021339+01:01 UTC

Overview Datums Bench Marks Data Query Site Visit Daily QC Messages Attributes

042: Nueces Delta 2

27° 53' 19" N   97° 34' 10" W
NUDE2
The Coastal Bend Bays & Estuaries Program Coastal Bend Bays and Estuaries Program

Station Information

Nueces Delta 2
Nueces Delta 2
more pictures
 
Station Name:Nueces Delta 2
DNR ID:042
Location:27° 53' 19" N, 97° 34' 10" W

Water Level Forecasts

Latest Observations

Series Metric English Marine Observed at
Water Temperature 26.4 °C 79.5 °F 79.5 °F Dec 04 18:18 CST
00h36m ago
Salinity 6.500 psu 6.500 psu 6.500 psu Dec 04 18:18 CST
00h36m ago

Maps

Nueces Delta 2
All Stations in Area
Entire Network
 

Recent Observations

Date/Time Water
Temp (°F)
Sal (psu)
Dec 04 18:00 CST 79.7 6.700
Dec 04 17:00 CST 79.0 6.700
Dec 04 16:00 CST 79.2 6.100
Dec 04 15:00 CST 79.2 6.500
Dec 04 14:00 CST 75.6 7.400
Dec 04 13:00 CST 73.9 8.000
Dec 04 12:00 CST 72.3 8.500
Dec 04 11:00 CST 71.4 9.000
Dec 04 10:00 CST 70.5 9.200
Dec 04 09:00 CST 70.0 9.000
Dec 04 08:00 CST 69.8 8.800
Dec 04 07:00 CST 70.0 8.800
Dec 04 06:00 CST 70.2 8.600
Dec 04 05:00 CST 70.5 8.500
Dec 04 04:00 CST 70.9 8.300
Dec 04 03:00 CST 71.1 8.200
Dec 04 02:00 CST 71.2 7.800
Dec 04 01:00 CST 71.6 7.600
Dec 04 00:00 CST 72.0 7.400
Dec 03 23:00 CST 72.3 7.100
Dec 03 22:00 CST 73.0 6.600
Dec 03 21:00 CST 74.1 6.000
Dec 03 18:00 CST 78.4 4.300

Historical Data Availability